createdAt,value
2018-09-02T00:00:06.986Z,60.71
2018-09-02T00:01:11.297Z,60.56
2018-09-02T00:02:15.423Z,60.86
2018-09-02T00:03:19.584Z,61.19
2018-09-02T00:04:23.807Z,61.44
2018-09-02T00:05:28.531Z,60.74
2018-09-02T00:06:32.716Z,61.03
2018-09-02T00:07:36.896Z,60.94
2018-09-02T00:08:41.078Z,60.93
2018-09-02T00:09:45.243Z,61.62
2018-09-02T00:10:49.391Z,60.98
2018-09-02T00:11:53.598Z,61.15
2018-09-02T00:12:57.767Z,61.81
2018-09-02T00:14:02.033Z,61.50
2018-09-02T00:15:06.194Z,61.59
2018-09-02T00:16:10.376Z,62.16
2018-09-02T00:17:14.553Z,61.84
2018-09-02T00:18:18.780Z,61.41
2018-09-02T00:19:22.942Z,61.61
2018-09-02T00:20:27.470Z,61.67
2018-09-02T00:21:31.632Z,61.74
2018-09-02T00:22:35.839Z,62.44
2018-09-02T00:23:40.019Z,62.10
2018-09-02T00:24:44.239Z,61.73
2018-09-02T00:25:48.456Z,62.49
2018-09-02T00:26:52.656Z,61.81
2018-09-02T00:27:56.966Z,62.43
2018-09-02T00:29:01.161Z,62.36
2018-09-02T00:30:05.787Z,62.73
2018-09-02T00:31:10.062Z,62.70
2018-09-02T00:32:14.267Z,62.49
2018-09-02T00:33:18.492Z,63.37
2018-09-02T00:34:22.784Z,63.16
2018-09-02T00:35:26.975Z,62.74
2018-09-02T00:36:31.274Z,63.06
2018-09-02T00:37:35.600Z,63.35
2018-09-02T00:38:39.760Z,62.97
2018-09-02T00:39:43.935Z,63.74
2018-09-02T00:40:48.291Z,63.32
2018-09-02T00:41:52.454Z,64.06
2018-09-02T00:42:56.701Z,64.16
2018-09-02T00:44:00.934Z,63.94
2018-09-02T00:45:05.460Z,63.92
2018-09-02T00:46:09.752Z,64.06
2018-09-02T00:47:13.958Z,63.85
2018-09-02T00:48:18.162Z,64.54
2018-09-02T00:49:22.331Z,64.33
2018-09-02T00:50:26.573Z,64.76
2018-09-02T00:51:30.996Z,64.77
2018-09-02T00:52:35.355Z,64.31
2018-09-02T00:53:39.743Z,65.07
2018-09-02T00:54:43.987Z,64.99
2018-09-02T00:55:48.175Z,65.15
2018-09-02T00:56:52.436Z,65.22
2018-09-02T00:57:56.819Z,64.99
2018-09-02T00:59:01.025Z,64.73
2018-09-02T01:00:06.023Z,64.89
2018-09-02T01:01:10.372Z,64.99
2018-09-02T01:02:14.675Z,65.05
2018-09-02T01:03:20.011Z,65.17
2018-09-02T01:04:24.191Z,65.78
2018-09-02T01:05:28.547Z,65.95
2018-09-02T01:06:32.725Z,65.55
2018-09-02T01:07:36.952Z,65.50
2018-09-02T01:08:41.233Z,65.81
2018-09-02T01:09:45.400Z,65.66
2018-09-02T01:10:50.018Z,66.03
2018-09-02T01:11:54.178Z,66.35
2018-09-02T01:12:58.527Z,65.81
2018-09-02T01:14:02.710Z,66.53
2018-09-02T01:15:07.196Z,66.19
2018-09-02T01:16:11.419Z,66.59
2018-09-02T01:17:15.611Z,66.35
2018-09-02T01:18:20.065Z,66.70
2018-09-02T01:19:24.254Z,66.29
2018-09-02T01:20:28.923Z,66.23
2018-09-02T01:21:33.179Z,66.85
2018-09-02T01:22:37.390Z,66.28
2018-09-02T01:23:41.603Z,66.29
2018-09-02T01:24:45.771Z,66.99
2018-09-02T01:25:49.948Z,67.19
2018-09-02T01:26:54.159Z,66.39
2018-09-02T01:27:58.369Z,66.51
2018-09-02T01:29:02.768Z,67.09
2018-09-02T01:30:07.252Z,66.90
2018-09-02T01:31:11.485Z,67.11
2018-09-02T01:32:15.871Z,66.71
2018-09-02T01:33:20.075Z,67.38
2018-09-02T01:34:24.267Z,67.27
2018-09-02T01:35:32.391Z,66.75
2018-09-02T01:36:36.592Z,67.38
2018-09-02T01:37:40.899Z,66.66
2018-09-02T01:38:45.081Z,66.85
2018-09-02T01:39:49.275Z,67.14
2018-09-02T01:40:53.451Z,67.26
2018-09-02T01:41:57.689Z,67.12
2018-09-02T01:43:01.940Z,67.64
2018-09-02T01:44:06.570Z,67.60
2018-09-02T01:45:10.815Z,67.11
2018-09-02T01:46:15.000Z,67.12
2018-09-02T01:47:19.232Z,67.72
2018-09-02T01:48:23.405Z,67.64
2018-09-02T01:49:27.825Z,67.67
2018-09-02T01:50:32.216Z,67.51
2018-09-02T01:51:36.416Z,67.12
2018-09-02T01:52:40.615Z,67.53
2018-09-02T01:53:44.826Z,67.85
2018-09-02T01:54:49.007Z,67.94
2018-09-02T01:55:53.230Z,67.40
2018-09-02T01:56:57.412Z,67.47
2018-09-02T01:58:01.653Z,67.96
2018-09-02T01:59:06.203Z,67.96
2018-09-02T02:00:10.432Z,67.99
2018-09-02T02:01:14.656Z,68.01
2018-09-02T02:02:18.844Z,67.56
2018-09-02T02:03:23.073Z,67.87
2018-09-02T02:04:30.036Z,67.54
2018-09-02T02:05:34.448Z,67.62
2018-09-02T02:06:38.755Z,67.61
2018-09-02T02:07:42.907Z,67.96
2018-09-02T02:08:47.166Z,67.66
2018-09-02T02:09:51.323Z,68.26
2018-09-02T02:10:55.779Z,68.29
2018-09-02T02:11:59.996Z,67.65
2018-09-02T02:13:04.322Z,67.80
2018-09-02T02:14:08.988Z,68.45
2018-09-02T02:15:13.168Z,68.59
2018-09-02T02:16:17.526Z,67.92
2018-09-02T02:17:21.779Z,68.24
2018-09-02T02:18:25.966Z,68.60
2018-09-02T02:19:30.554Z,68.61
2018-09-02T02:20:34.967Z,68.74
2018-09-02T02:21:39.265Z,68.59
2018-09-02T02:22:43.481Z,68.04
2018-09-02T02:23:47.719Z,68.81
2018-09-02T02:24:51.892Z,68.69
2018-09-02T02:25:56.291Z,68.48
2018-09-02T02:27:00.494Z,68.61
2018-09-02T02:28:04.695Z,68.76
2018-09-02T02:29:08.906Z,68.91
2018-09-02T02:30:13.114Z,68.25
2018-09-02T02:31:17.602Z,68.33
2018-09-02T02:32:21.776Z,68.29
2018-09-02T02:33:25.975Z,68.21
2018-09-02T02:34:30.169Z,68.98
2018-09-02T02:35:34.357Z,68.41
2018-09-02T02:36:38.575Z,69.20
2018-09-02T02:37:42.737Z,68.75
2018-09-02T02:38:46.935Z,69.09
2018-09-02T02:39:51.122Z,69.35
2018-09-02T02:40:55.344Z,69.14
2018-09-02T02:41:59.549Z,68.56
2018-09-02T02:43:03.784Z,68.77
2018-09-02T02:44:08.147Z,68.58
2018-09-02T02:45:12.392Z,69.21
2018-09-02T02:46:16.575Z,68.62
2018-09-02T02:47:20.804Z,69.25
2018-09-02T02:48:24.974Z,69.43
2018-09-02T02:49:29.272Z,69.26
2018-09-02T02:50:33.595Z,69.36
2018-09-02T02:51:37.781Z,69.01
2018-09-02T02:52:47.096Z,69.38
2018-09-02T02:53:51.398Z,69.00
2018-09-02T02:54:55.630Z,69.34
2018-09-02T02:55:59.871Z,68.90
2018-09-02T02:57:04.093Z,68.88
2018-09-02T02:58:08.259Z,68.89
2018-09-02T02:59:12.465Z,68.80
2018-09-02T03:00:16.693Z,69.24
2018-09-02T03:01:20.922Z,69.45
2018-09-02T03:02:25.100Z,69.08
2018-09-02T03:03:29.306Z,69.08
2018-09-02T03:04:33.471Z,69.32
2018-09-02T03:05:37.876Z,69.14
2018-09-02T03:06:42.095Z,69.44
2018-09-02T03:07:46.358Z,69.45
2018-09-02T03:08:50.559Z,69.02
2018-09-02T03:09:54.743Z,69.14
2018-09-02T03:10:59.099Z,70.00
2018-09-02T03:12:03.287Z,69.20
2018-09-02T03:13:07.669Z,69.34
2018-09-02T03:14:11.873Z,70.08
2018-09-02T03:15:16.181Z,69.96
2018-09-02T03:16:20.485Z,69.98
2018-09-02T03:17:24.688Z,70.17
2018-09-02T03:18:28.896Z,69.82
2018-09-02T03:19:33.328Z,69.49
2018-09-02T03:20:37.897Z,69.60
2018-09-02T03:21:42.104Z,69.98
2018-09-02T03:22:46.346Z,69.67
2018-09-02T03:23:50.495Z,69.73
2018-09-02T03:24:54.669Z,70.33
2018-09-02T03:25:58.967Z,70.17
2018-09-02T03:27:03.523Z,69.92
2018-09-02T03:28:07.667Z,69.95
2018-09-02T03:29:11.889Z,70.71
2018-09-02T03:30:16.027Z,70.65
2018-09-02T03:31:20.173Z,70.66
2018-09-02T03:32:24.439Z,70.70
2018-09-02T03:33:28.802Z,70.80
2018-09-02T03:34:32.951Z,70.29
2018-09-02T03:35:37.116Z,70.35
2018-09-02T03:36:41.291Z,71.05
2018-09-02T03:37:45.532Z,71.09
2018-09-02T03:38:49.716Z,71.05
2018-09-02T03:39:54.161Z,70.84
2018-09-02T03:40:58.311Z,70.62
2018-09-02T03:42:02.534Z,71.50
2018-09-02T03:43:06.750Z,71.44
2018-09-02T03:44:11.063Z,71.44
2018-09-02T03:45:15.226Z,70.90
2018-09-02T03:46:19.410Z,71.59
2018-09-02T03:47:23.578Z,71.57
2018-09-02T03:48:27.800Z,71.63
2018-09-02T03:49:31.950Z,71.09
2018-09-02T03:50:36.121Z,71.82
2018-09-02T03:51:40.262Z,71.02
2018-09-02T03:52:44.994Z,71.19
2018-09-02T03:53:49.190Z,71.10
2018-09-02T03:54:53.404Z,71.43
2018-09-02T03:55:57.946Z,71.76
2018-09-02T03:57:02.156Z,71.61
2018-09-02T03:58:06.533Z,71.35
2018-09-02T03:59:10.752Z,71.37
2018-09-02T04:00:15.147Z,71.70
2018-09-02T04:01:19.471Z,71.43
2018-09-02T04:02:23.634Z,71.59
2018-09-02T04:03:28.070Z,71.92
2018-09-02T04:04:32.377Z,72.11
2018-09-02T04:05:36.685Z,71.50
2018-09-02T04:06:40.957Z,71.60
2018-09-02T04:07:45.116Z,72.17
2018-09-02T04:08:49.524Z,71.55
2018-09-02T04:09:53.866Z,71.69
2018-09-02T04:10:58.222Z,72.15
2018-09-02T04:12:02.347Z,72.38
2018-09-02T04:13:06.692Z,72.21
2018-09-02T04:14:10.851Z,72.03
2018-09-02T04:15:15.055Z,72.51
2018-09-02T04:16:19.268Z,71.69
2018-09-02T04:17:23.452Z,71.92
2018-09-02T04:18:27.760Z,71.91
2018-09-02T04:19:31.911Z,72.60
2018-09-02T04:20:36.879Z,72.55
2018-09-02T04:21:41.698Z,72.49
2018-09-02T04:22:45.899Z,72.18
2018-09-02T04:23:50.151Z,72.52
2018-09-02T04:24:54.336Z,72.03
2018-09-02T04:25:58.562Z,72.63
2018-09-02T04:27:02.754Z,72.43
2018-09-02T04:28:07.004Z,72.73
2018-09-02T04:29:11.246Z,72.91
2018-09-02T04:30:15.438Z,72.78
2018-09-02T04:31:19.705Z,72.79
2018-09-02T04:32:23.866Z,72.08
2018-09-02T04:33:28.070Z,72.70
2018-09-02T04:34:32.252Z,72.18
2018-09-02T04:35:36.423Z,71.93
2018-09-02T04:36:40.658Z,72.24
2018-09-02T04:37:44.831Z,72.24
2018-09-02T04:38:49.000Z,71.88
2018-09-02T04:39:53.367Z,71.95
2018-09-02T04:40:57.566Z,72.54
2018-09-02T04:42:01.912Z,72.68
2018-09-02T04:43:06.279Z,72.13
2018-09-02T04:44:10.471Z,72.26
2018-09-02T04:45:14.741Z,72.68
2018-09-02T04:46:18.990Z,72.71
2018-09-02T04:47:23.163Z,72.40
2018-09-02T04:48:27.347Z,72.14
2018-09-02T04:49:31.496Z,72.22
2018-09-02T04:50:35.731Z,72.84
2018-09-02T04:51:39.989Z,72.46
2018-09-02T04:52:44.194Z,72.37
2018-09-02T04:53:48.654Z,72.53
2018-09-02T04:54:52.807Z,72.56
2018-09-02T04:55:57.301Z,72.98
2018-09-02T04:57:01.440Z,72.87
2018-09-02T04:58:05.852Z,73.07
2018-09-02T04:59:10.052Z,72.59
2018-09-02T05:00:14.269Z,72.72
2018-09-02T05:01:18.425Z,73.23
2018-09-02T05:02:22.611Z,73.28
2018-09-02T05:03:26.814Z,73.38
2018-09-02T05:04:31.182Z,73.28
2018-09-02T05:05:35.447Z,72.79
2018-09-02T05:06:40.028Z,73.32
2018-09-02T05:07:44.182Z,72.78
2018-09-02T05:08:48.371Z,72.73
2018-09-02T05:09:52.556Z,72.68
2018-09-02T05:10:56.894Z,72.85
2018-09-02T05:12:01.058Z,72.76
2018-09-02T05:13:05.234Z,73.39
2018-09-02T05:14:09.918Z,72.84
2018-09-02T05:15:14.259Z,72.86
2018-09-02T05:16:18.422Z,73.20
2018-09-02T05:17:24.055Z,73.44
2018-09-02T05:18:28.266Z,72.96
2018-09-02T05:19:32.510Z,73.59
2018-09-02T05:20:36.909Z,73.46
2018-09-02T05:21:41.179Z,72.85
2018-09-02T05:22:45.348Z,73.64
2018-09-02T05:23:49.701Z,73.05
2018-09-02T05:24:53.883Z,73.44
2018-09-02T05:25:58.050Z,73.30
2018-09-02T05:27:02.625Z,72.67
2018-09-02T05:28:07.163Z,72.69
2018-09-02T05:29:11.307Z,72.65
2018-09-02T05:30:15.499Z,72.85
2018-09-02T05:31:19.696Z,73.22
2018-09-02T05:32:24.030Z,73.37
2018-09-02T05:33:28.203Z,73.32
2018-09-02T05:34:32.571Z,73.29
2018-09-02T05:35:36.738Z,72.75
2018-09-02T05:36:40.982Z,72.83
2018-09-02T05:37:45.319Z,73.23
2018-09-02T05:38:49.597Z,73.08
2018-09-02T05:39:53.801Z,73.46
2018-09-02T05:40:58.039Z,73.09
2018-09-02T05:42:02.304Z,72.94
2018-09-02T05:43:06.514Z,73.50
2018-09-02T05:44:10.837Z,73.54
2018-09-02T05:45:14.963Z,73.46
2018-09-02T05:46:19.311Z,73.19
2018-09-02T05:47:23.472Z,73.18
2018-09-02T05:48:27.620Z,72.98
2018-09-02T05:49:31.800Z,73.19
2018-09-02T05:50:36.063Z,73.00
2018-09-02T05:51:40.311Z,72.42
2018-09-02T05:52:44.483Z,72.62
2018-09-02T05:53:48.671Z,72.22
2018-09-02T05:54:52.846Z,72.68
2018-09-02T05:55:57.030Z,72.56
2018-09-02T05:57:01.529Z,72.58
2018-09-02T05:58:05.804Z,71.78
2018-09-02T05:59:09.948Z,72.40
2018-09-02T06:00:14.240Z,71.83
2018-09-02T06:01:18.509Z,72.16
2018-09-02T06:02:24.820Z,71.42
2018-09-02T06:03:29.100Z,71.31
2018-09-02T06:04:33.259Z,71.05
2018-09-02T06:05:37.491Z,71.35
2018-09-02T06:06:41.631Z,70.92
2018-09-02T06:07:45.938Z,71.38
2018-09-02T06:08:50.247Z,70.75
2018-09-02T06:09:54.800Z,70.66
2018-09-02T06:10:59.029Z,70.49
2018-09-02T06:12:03.248Z,70.99
2018-09-02T06:13:07.960Z,70.68
2018-09-02T06:14:12.184Z,70.41
2018-09-02T06:15:16.353Z,70.45
2018-09-02T06:16:20.563Z,70.54
2018-09-02T06:17:24.831Z,69.99
2018-09-02T06:18:28.927Z,70.33
2018-09-02T06:19:33.117Z,70.37
2018-09-02T06:20:37.263Z,69.80
2018-09-02T06:21:41.764Z,69.72
2018-09-02T06:22:45.948Z,70.31
2018-09-02T06:23:50.204Z,69.78
2018-09-02T06:24:54.394Z,69.53
2018-09-02T06:25:58.717Z,69.57
2018-09-02T06:27:02.965Z,69.94
2018-09-02T06:28:07.242Z,69.85
2018-09-02T06:29:11.899Z,69.64
2018-09-02T06:30:16.531Z,69.81
2018-09-02T06:31:20.526Z,69.54
2018-09-02T06:32:24.812Z,68.86
2018-09-02T06:33:29.003Z,68.80
2018-09-02T06:34:33.994Z,69.09
2018-09-02T06:35:38.216Z,69.40
2018-09-02T06:36:42.375Z,68.63
2018-09-02T06:37:46.578Z,68.67
2018-09-02T06:38:50.726Z,69.16
2018-09-02T06:39:54.950Z,69.16
2018-09-02T06:40:59.099Z,68.92
2018-09-02T06:42:03.372Z,68.66
2018-09-02T06:43:07.633Z,68.75
2018-09-02T06:44:16.297Z,68.45
2018-09-02T06:45:20.807Z,68.06
2018-09-02T06:46:24.982Z,68.02
2018-09-02T06:47:29.262Z,67.87
2018-09-02T06:48:33.492Z,68.53
2018-09-02T06:49:37.784Z,67.96
2018-09-02T06:50:42.093Z,68.28
2018-09-02T06:51:46.308Z,68.47
2018-09-02T06:52:50.707Z,68.31
2018-09-02T06:53:55.048Z,68.33
2018-09-02T06:54:59.227Z,68.29
2018-09-02T06:56:03.525Z,68.27
2018-09-02T06:57:07.743Z,68.14
2018-09-02T06:58:12.360Z,68.08
2018-09-02T06:59:16.531Z,67.83
2018-09-02T07:00:20.948Z,67.34
2018-09-02T07:01:25.142Z,67.26
2018-09-02T07:02:29.302Z,67.91
2018-09-02T07:03:33.616Z,67.37
2018-09-02T07:04:37.903Z,67.92
2018-09-02T07:05:42.795Z,67.50
2018-09-02T07:06:47.318Z,67.13
2018-09-02T07:07:51.467Z,67.24
2018-09-02T07:08:55.650Z,67.64
2018-09-02T07:09:59.808Z,66.96
2018-09-02T07:11:04.141Z,66.87
2018-09-02T07:12:08.321Z,66.64
2018-09-02T07:13:12.703Z,66.82
2018-09-02T07:14:16.980Z,67.22
2018-09-02T07:15:21.143Z,66.47
2018-09-02T07:16:25.302Z,66.98
2018-09-02T07:17:29.514Z,66.73
2018-09-02T07:18:33.820Z,66.57
2018-09-02T07:19:37.996Z,66.81
2018-09-02T07:20:42.185Z,66.23
2018-09-02T07:21:46.555Z,66.68
2018-09-02T07:22:50.806Z,66.23
2018-09-02T07:23:54.961Z,65.85
2018-09-02T07:24:59.159Z,65.92
2018-09-02T07:26:03.348Z,66.13
2018-09-02T07:27:07.657Z,65.82
2018-09-02T07:28:11.887Z,65.75
2018-09-02T07:29:16.139Z,66.22
2018-09-02T07:30:20.381Z,66.10
2018-09-02T07:31:24.710Z,66.05
2018-09-02T07:32:29.294Z,66.15
2018-09-02T07:33:33.492Z,65.68
2018-09-02T07:34:37.844Z,65.34
2018-09-02T07:35:42.031Z,65.75
2018-09-02T07:36:46.276Z,65.78
2018-09-02T07:37:50.508Z,65.73
2018-09-02T07:38:54.719Z,65.43
2018-09-02T07:39:59.158Z,65.16
2018-09-02T07:41:03.360Z,65.77
2018-09-02T07:42:07.545Z,64.91
2018-09-02T07:43:11.875Z,65.46
2018-09-02T07:44:16.141Z,64.99
2018-09-02T07:45:20.840Z,65.46
2018-09-02T07:46:25.026Z,65.39
2018-09-02T07:47:29.224Z,64.98
2018-09-02T07:48:33.400Z,65.06
2018-09-02T07:49:37.628Z,64.32
2018-09-02T07:50:41.827Z,64.25
2018-09-02T07:51:46.024Z,64.42
2018-09-02T07:52:50.185Z,64.34
2018-09-02T07:53:54.392Z,64.06
2018-09-02T07:54:58.599Z,64.16
2018-09-02T07:56:02.805Z,64.59
2018-09-02T07:57:07.002Z,64.29
2018-09-02T07:58:11.229Z,63.60
2018-09-02T07:59:15.622Z,64.31
2018-09-02T08:00:19.831Z,63.60
2018-09-02T08:01:24.047Z,64.02
2018-09-02T08:02:28.374Z,64.01
2018-09-02T08:03:32.560Z,63.33
2018-09-02T08:04:36.745Z,63.51
2018-09-02T08:05:41.159Z,63.14
2018-09-02T08:06:45.361Z,63.50
2018-09-02T08:07:49.570Z,63.19
2018-09-02T08:08:53.743Z,63.08
2018-09-02T08:09:57.926Z,63.78
2018-09-02T08:11:02.124Z,63.12
2018-09-02T08:12:06.586Z,63.52
2018-09-02T08:13:10.916Z,63.00
2018-09-02T08:14:15.127Z,63.09
2018-09-02T08:15:19.315Z,63.22
2018-09-02T08:16:23.542Z,62.97
2018-09-02T08:17:27.724Z,62.93
2018-09-02T08:18:32.047Z,62.42
2018-09-02T08:19:36.285Z,62.74
2018-09-02T08:20:40.453Z,62.32
2018-09-02T08:21:44.763Z,62.78
2018-09-02T08:22:49.223Z,62.80
2018-09-02T08:23:53.460Z,62.05
2018-09-02T08:24:57.671Z,62.31
2018-09-02T08:26:01.877Z,62.15
2018-09-02T08:27:06.268Z,61.75
2018-09-02T08:28:10.453Z,61.25
2018-09-02T08:29:14.611Z,60.86
2018-09-02T08:30:18.787Z,61.30
2018-09-02T08:31:23.139Z,60.67
2018-09-02T08:32:27.414Z,60.70
2018-09-02T08:33:31.588Z,60.05
2018-09-02T08:34:35.749Z,59.86
2018-09-02T08:35:40.076Z,59.65
2018-09-02T08:36:44.240Z,59.42
2018-09-02T08:37:48.597Z,59.06
2018-09-02T08:38:52.839Z,59.49
2018-09-02T08:39:56.998Z,58.66
2018-09-02T08:41:01.203Z,58.69
2018-09-02T08:42:05.592Z,58.82
2018-09-02T08:43:09.794Z,58.32
2018-09-02T08:44:14.025Z,58.52
2018-09-02T08:45:18.159Z,58.19
2018-09-02T08:46:22.452Z,57.64
2018-09-02T08:47:26.827Z,57.33
2018-09-02T08:48:31.018Z,57.51
2018-09-02T08:49:36.847Z,57.02
2018-09-02T08:50:41.255Z,57.34
2018-09-02T08:51:45.408Z,57.06
2018-09-02T08:52:49.588Z,56.54
2018-09-02T08:53:53.876Z,57.36
2018-09-02T08:54:58.384Z,56.77
2018-09-02T08:56:02.600Z,56.10
2018-09-02T08:57:07.386Z,56.26
2018-09-02T08:58:11.584Z,56.81
2018-09-02T08:59:15.824Z,56.44
2018-09-02T09:00:20.112Z,57.08
2018-09-02T09:01:24.332Z,56.55
2018-09-02T09:02:28.856Z,56.22
2018-09-02T09:03:33.031Z,56.46
2018-09-02T09:04:37.428Z,56.23
2018-09-02T09:05:41.579Z,55.63
2018-09-02T09:06:45.785Z,56.22
2018-09-02T09:07:50.129Z,55.92
2018-09-02T09:08:54.735Z,56.06
2018-09-02T09:09:58.787Z,56.00
2018-09-02T09:11:02.996Z,55.60
2018-09-02T09:12:07.232Z,55.88
2018-09-02T09:13:11.391Z,55.85
2018-09-02T09:14:15.568Z,56.17
2018-09-02T09:15:19.818Z,56.09
2018-09-02T09:16:24.023Z,55.70
2018-09-02T09:17:28.199Z,55.54
2018-09-02T09:18:32.639Z,55.45
2018-09-02T09:19:36.823Z,55.11
2018-09-02T09:20:41.130Z,55.57
2018-09-02T09:21:45.364Z,54.97
2018-09-02T09:22:49.874Z,55.09
2018-09-02T09:23:54.037Z,54.41
2018-09-02T09:24:58.238Z,54.62
2018-09-02T09:26:02.442Z,54.40
2018-09-02T09:27:06.657Z,53.91
2018-09-02T09:28:10.834Z,53.03
2018-09-02T09:29:15.003Z,53.60
2018-09-02T09:30:19.179Z,52.94
2018-09-02T09:31:23.459Z,53.13
2018-09-02T09:32:27.667Z,52.88
2018-09-02T09:33:31.863Z,52.87
2018-09-02T09:34:36.512Z,52.33
2018-09-02T09:35:40.685Z,52.25
2018-09-02T09:36:44.875Z,51.64
2018-09-02T09:37:49.047Z,51.28
2018-09-02T09:38:53.402Z,50.40
2018-09-02T09:39:57.723Z,49.95
2018-09-02T09:41:01.879Z,49.13
2018-09-02T09:42:06.100Z,49.33
2018-09-02T09:43:10.324Z,48.80
2018-09-02T09:44:14.497Z,48.30
2018-09-02T09:45:18.695Z,48.58
2018-09-02T09:46:22.889Z,47.83
2018-09-02T09:47:27.201Z,47.87
2018-09-02T09:48:31.347Z,47.86
2018-09-02T09:49:35.656Z,47.44
2018-09-02T09:50:39.815Z,47.67
2018-09-02T09:51:44.266Z,47.43
2018-09-02T09:52:48.463Z,47.31
2018-09-02T09:53:52.626Z,47.41
2018-09-02T09:54:56.801Z,46.85
2018-09-02T09:56:01.047Z,46.98
2018-09-02T09:57:05.240Z,46.91
2018-09-02T09:58:09.661Z,46.37
2018-09-02T09:59:13.810Z,46.66
2018-09-02T10:00:23.198Z,46.53
2018-09-02T10:01:27.556Z,46.13
2018-09-02T10:02:31.752Z,45.66
2018-09-02T10:03:36.008Z,46.29
2018-09-02T10:04:40.281Z,45.88
2018-09-02T10:05:44.471Z,45.54
2018-09-02T10:06:48.655Z,45.36
2018-09-02T10:07:52.843Z,46.09
2018-09-02T10:08:57.062Z,46.27
2018-09-02T10:10:01.243Z,46.19
2018-09-02T10:11:05.426Z,46.11
2018-09-02T10:12:09.612Z,45.63
2018-09-02T10:13:13.811Z,46.04
2018-09-02T10:14:18.026Z,45.50
2018-09-02T10:15:22.231Z,45.88
2018-09-02T10:16:26.578Z,45.35
2018-09-02T10:17:30.781Z,45.51
2018-09-02T10:18:34.987Z,45.09
2018-09-02T10:19:39.295Z,45.31
2018-09-02T10:20:43.427Z,45.06
2018-09-02T10:21:47.732Z,45.09
2018-09-02T10:22:52.422Z,44.74
2018-09-02T10:23:56.580Z,45.12
2018-09-02T10:25:00.938Z,45.55
2018-09-02T10:26:05.596Z,44.83
2018-09-02T10:27:09.779Z,45.16
2018-09-02T10:28:13.995Z,45.18
2018-09-02T10:29:18.191Z,44.89
2018-09-02T10:30:22.430Z,44.66
2018-09-02T10:31:26.860Z,44.66
2018-09-02T10:32:31.126Z,44.42
2018-09-02T10:33:35.300Z,44.18
2018-09-02T10:34:39.498Z,44.78
2018-09-02T10:35:43.731Z,44.67
2018-09-02T10:36:47.968Z,44.01
2018-09-02T10:37:52.176Z,44.29
2018-09-02T10:38:56.420Z,44.10
2018-09-02T10:40:00.728Z,44.53
2018-09-02T10:41:04.943Z,44.69
2018-09-02T10:42:09.110Z,44.20
2018-09-02T10:43:13.344Z,44.06
2018-09-02T10:44:17.606Z,44.46
2018-09-02T10:45:21.893Z,44.04
2018-09-02T10:46:26.104Z,43.88
2018-09-02T10:47:30.292Z,43.44
2018-09-02T10:48:34.575Z,43.62
2018-09-02T10:49:38.905Z,43.49
2018-09-02T10:50:43.088Z,43.54
2018-09-02T10:51:47.261Z,43.27
2018-09-02T10:52:51.514Z,43.39
2018-09-02T10:53:55.659Z,43.13
2018-09-02T10:54:59.855Z,43.16
2018-09-02T10:56:04.032Z,43.69
2018-09-02T10:57:08.220Z,42.92
2018-09-02T10:58:12.382Z,43.24
2018-09-02T10:59:16.549Z,42.94
2018-09-02T11:00:20.742Z,43.14
2018-09-02T11:01:24.910Z,43.07
2018-09-02T11:02:29.121Z,43.31
2018-09-02T11:03:33.266Z,43.51
2018-09-02T11:04:37.444Z,43.69
2018-09-02T11:05:41.649Z,43.04
2018-09-02T11:06:45.782Z,42.97
2018-09-02T11:07:50.326Z,43.48
2018-09-02T11:08:54.825Z,43.41
2018-09-02T11:09:58.970Z,43.94
2018-09-02T11:11:03.150Z,44.07
2018-09-02T11:12:07.496Z,43.46
2018-09-02T11:13:11.682Z,44.15
2018-09-02T11:14:15.835Z,44.15
2018-09-02T11:15:20.008Z,44.17
2018-09-02T11:16:24.321Z,43.93
2018-09-02T11:17:28.795Z,43.57
2018-09-02T11:18:33.005Z,44.39
2018-09-02T11:19:37.240Z,44.52
2018-09-02T11:20:41.394Z,44.02
2018-09-02T11:21:45.558Z,44.68
2018-09-02T11:22:49.748Z,44.27
2018-09-02T11:23:54.364Z,44.29
2018-09-02T11:24:58.483Z,44.85
2018-09-02T11:26:02.674Z,44.63
2018-09-02T11:27:07.300Z,45.24
2018-09-02T11:28:11.482Z,44.89
2018-09-02T11:29:15.804Z,45.11
2018-09-02T11:30:19.943Z,44.92
2018-09-02T11:31:24.107Z,44.92
2018-09-02T11:32:28.246Z,44.51
2018-09-02T11:33:32.433Z,44.08
2018-09-02T11:34:36.595Z,44.54
2018-09-02T11:35:40.757Z,44.26
2018-09-02T11:36:44.928Z,44.46
2018-09-02T11:37:49.126Z,44.35
2018-09-02T11:38:53.315Z,44.31
2018-09-02T11:39:57.545Z,44.13
2018-09-02T11:41:01.749Z,44.45
2018-09-02T11:42:05.964Z,44.01
2018-09-02T11:43:10.100Z,44.29
2018-09-02T11:44:14.238Z,43.38
2018-09-02T11:45:18.500Z,43.82
2018-09-02T11:46:22.622Z,43.61
2018-09-02T11:47:26.871Z,43.47
2018-09-02T11:48:31.003Z,43.08
2018-09-02T11:49:35.142Z,43.36
2018-09-02T11:50:39.413Z,43.16
2018-09-02T11:51:43.587Z,42.93
2018-09-02T11:52:47.952Z,42.70
2018-09-02T11:53:52.102Z,42.52
2018-09-02T11:54:56.254Z,42.65
2018-09-02T11:56:00.458Z,42.71
2018-09-02T11:57:04.625Z,42.57
2018-09-02T11:58:08.826Z,42.76
2018-09-02T11:59:13.049Z,42.42
2018-09-02T12:00:17.226Z,42.50
2018-09-02T12:01:21.447Z,42.43
2018-09-02T12:02:25.649Z,42.48
2018-09-02T12:03:29.954Z,42.38
2018-09-02T12:04:34.293Z,42.39
2018-09-02T12:05:38.410Z,42.13
2018-09-02T12:06:42.574Z,41.91
2018-09-02T12:07:46.781Z,42.67
2018-09-02T12:08:50.894Z,42.37
2018-09-02T12:09:55.226Z,42.60
2018-09-02T12:10:59.362Z,42.49
2018-09-02T12:12:03.596Z,42.39
2018-09-02T12:13:07.731Z,42.34
2018-09-02T12:14:11.880Z,42.10
2018-09-02T12:15:16.028Z,42.66
2018-09-02T12:16:20.153Z,42.43
2018-09-02T12:17:24.342Z,42.33
2018-09-02T12:18:28.496Z,41.86
2018-09-02T12:19:32.663Z,41.94
2018-09-02T12:20:36.826Z,42.06
2018-09-02T12:21:41.371Z,41.95
2018-09-02T12:22:45.538Z,41.73
2018-09-02T12:23:49.696Z,41.43
2018-09-02T12:24:54.298Z,42.00
2018-09-02T12:25:58.467Z,41.24
2018-09-02T12:27:02.650Z,41.51
2018-09-02T12:28:06.834Z,41.80
2018-09-02T12:29:10.991Z,41.65
2018-09-02T12:30:15.139Z,42.17
2018-09-02T12:31:19.359Z,41.41
2018-09-02T12:32:23.595Z,41.66
2018-09-02T12:33:27.788Z,41.90
2018-09-02T12:34:32.009Z,41.58
2018-09-02T12:35:36.294Z,41.95
2018-09-02T12:36:40.464Z,41.36
2018-09-02T12:37:44.619Z,41.39
2018-09-02T12:38:48.908Z,41.77
2018-09-02T12:39:53.074Z,42.00
2018-09-02T12:40:57.304Z,42.17
2018-09-02T12:42:01.431Z,42.20
2018-09-02T12:43:05.647Z,41.68
2018-09-02T12:44:09.776Z,41.98
2018-09-02T12:45:14.159Z,41.67
2018-09-02T12:46:18.279Z,42.23
2018-09-02T12:47:22.418Z,42.05
2018-09-02T12:48:26.575Z,41.53
2018-09-02T12:49:30.779Z,41.93
2018-09-02T12:50:34.945Z,41.49
2018-09-02T12:51:39.135Z,41.39
2018-09-02T12:52:43.290Z,41.82
2018-09-02T12:53:47.405Z,41.27
2018-09-02T12:54:51.598Z,41.92
2018-09-02T12:55:55.754Z,41.90
2018-09-02T12:57:00.023Z,41.46
2018-09-02T12:58:04.447Z,41.14
2018-09-02T12:59:08.587Z,41.10
2018-09-02T13:00:13.129Z,41.13
2018-09-02T13:01:17.650Z,40.98
2018-09-02T13:02:21.748Z,41.20
2018-09-02T13:03:25.884Z,40.96
2018-09-02T13:04:30.003Z,41.07
2018-09-02T13:05:34.198Z,40.87
2018-09-02T13:06:38.436Z,40.85
2018-09-02T13:07:42.582Z,41.61
2018-09-02T13:08:46.738Z,41.02
2018-09-02T13:09:50.883Z,41.21
2018-09-02T13:10:55.085Z,41.37
2018-09-02T13:11:59.243Z,41.17
2018-09-02T13:13:03.423Z,41.54
2018-09-02T13:14:07.698Z,40.83
2018-09-02T13:15:11.875Z,41.28
2018-09-02T13:16:16.049Z,40.97
2018-09-02T13:17:20.210Z,40.84
2018-09-02T13:18:24.370Z,41.51
2018-09-02T13:19:28.518Z,41.40
2018-09-02T13:20:32.666Z,41.53
2018-09-02T13:21:36.859Z,41.32
2018-09-02T13:22:40.975Z,41.37
2018-09-02T13:23:45.148Z,40.55
2018-09-02T13:24:49.257Z,40.49
2018-09-02T13:25:53.618Z,40.52
2018-09-02T13:26:57.806Z,40.53
2018-09-02T13:28:01.939Z,40.71
2018-09-02T13:29:06.145Z,40.53
2018-09-02T13:30:11.338Z,40.48
2018-09-02T13:31:15.481Z,41.00
2018-09-02T13:32:20.146Z,41.03
2018-09-02T13:33:24.314Z,40.84
2018-09-02T13:34:28.473Z,41.00
2018-09-02T13:35:32.615Z,40.65
2018-09-02T13:36:36.823Z,40.56
2018-09-02T13:37:40.991Z,40.53
2018-09-02T13:38:45.135Z,40.58
2018-09-02T13:39:49.318Z,40.87
2018-09-02T13:41:56.362Z,41.04
2018-09-02T13:43:00.738Z,40.58
2018-09-02T13:44:05.195Z,40.26
2018-09-02T13:45:09.606Z,40.89
2018-09-02T13:46:13.760Z,40.24
2018-09-02T13:47:17.954Z,40.48
2018-09-02T13:48:22.315Z,40.50